createdAt,value
2019-01-04T00:02:19.776Z,-2.20
2019-01-04T00:04:52.603Z,-2.20
2019-01-04T00:07:25.500Z,-2.20
2019-01-04T00:09:58.340Z,-2.20
2019-01-04T00:12:31.215Z,-2.20
2019-01-04T00:15:04.403Z,-2.20
2019-01-04T00:17:37.275Z,-2.20
2019-01-04T00:20:11.674Z,-2.30
2019-01-04T00:22:44.669Z,-2.30
2019-01-04T00:25:17.653Z,-2.30
2019-01-04T00:27:50.440Z,-2.30
2019-01-04T00:30:23.585Z,-2.20
2019-01-04T00:32:56.549Z,-2.20
2019-01-04T00:35:29.520Z,-2.30
2019-01-04T00:38:02.412Z,-2.30
2019-01-04T00:40:35.213Z,-2.30
2019-01-04T00:43:08.058Z,-2.30
2019-01-04T00:45:41.018Z,-2.30
2019-01-04T00:48:13.946Z,-2.30
2019-01-04T00:50:46.837Z,-2.40
2019-01-04T00:53:19.742Z,-2.40
2019-01-04T00:56:42.608Z,-2.40
2019-01-04T01:00:08.740Z,-2.40
2019-01-04T01:04:04.802Z,-2.50
2019-01-04T01:07:49.162Z,-2.50
2019-01-04T01:11:25.896Z,-2.50
2019-01-04T01:15:12.585Z,-2.50
2019-01-04T01:18:51.837Z,-2.50
2019-01-04T01:22:35.164Z,-2.40
2019-01-04T01:26:04.975Z,-2.40
2019-01-04T01:29:28.471Z,-2.40
2019-01-04T01:33:02.012Z,-2.50
2019-01-04T01:36:38.515Z,-2.50
2019-01-04T01:40:12.074Z,-2.50
2019-01-04T01:43:38.244Z,-2.60
2019-01-04T01:46:49.861Z,-2.60
2019-01-04T01:50:17.280Z,-2.60
2019-01-04T01:52:51.808Z,-2.50
2019-01-04T01:55:25.466Z,-2.50
2019-01-04T01:57:58.355Z,-2.50
2019-01-04T02:00:31.564Z,-2.50
2019-01-04T02:03:04.792Z,-2.50
2019-01-04T02:05:37.635Z,-2.50
2019-01-04T02:08:10.708Z,-2.50
2019-01-04T02:10:43.793Z,-2.30
2019-01-04T02:13:16.987Z,-2.40
2019-01-04T02:15:50.136Z,-2.50
2019-01-04T02:18:23.036Z,-2.60
2019-01-04T02:20:56.400Z,-2.60
2019-01-04T02:23:29.591Z,-2.60
2019-01-04T02:26:02.729Z,-2.60
2019-01-04T02:28:35.698Z,-2.60
2019-01-04T02:31:08.944Z,-2.60
2019-01-04T02:33:42.125Z,-2.70
2019-01-04T02:36:15.128Z,-2.70
2019-01-04T02:38:48.159Z,-2.70
2019-01-04T02:41:21.041Z,-2.80
2019-01-04T02:43:54.282Z,-2.90
2019-01-04T02:46:27.365Z,-2.90
2019-01-04T02:49:00.280Z,-2.90
2019-01-04T02:51:33.187Z,-2.80
2019-01-04T02:54:07.899Z,-2.80
2019-01-04T02:56:40.888Z,-2.80
2019-01-04T02:59:13.867Z,-2.80
2019-01-04T03:01:47.505Z,-2.80
2019-01-04T03:04:20.408Z,-2.80
2019-01-04T03:06:53.752Z,-2.80
2019-01-04T03:09:26.808Z,-2.80
2019-01-04T03:11:59.858Z,-2.80
2019-01-04T03:14:32.868Z,-2.90
2019-01-04T03:17:05.817Z,-2.90
2019-01-04T03:19:38.706Z,-2.90
2019-01-04T03:22:11.687Z,-2.90
2019-01-04T03:24:44.873Z,-3.00
2019-01-04T03:27:17.897Z,-3.00
2019-01-04T03:29:52.096Z,-3.00
2019-01-04T03:32:25.037Z,-3.10
2019-01-04T03:34:58.330Z,-3.00
2019-01-04T03:37:31.465Z,-3.00
2019-01-04T03:40:04.672Z,-3.10
2019-01-04T03:42:38.224Z,-3.10
2019-01-04T03:45:11.695Z,-3.10
2019-01-04T03:47:45.095Z,-3.10
2019-01-04T03:50:18.207Z,-3.10
2019-01-04T03:52:51.360Z,-3.20
2019-01-04T03:55:24.462Z,-3.10
2019-01-04T03:57:57.591Z,-3.20
2019-01-04T04:00:30.603Z,-3.20
2019-01-04T04:03:03.635Z,-3.20
2019-01-04T04:05:36.618Z,-3.10
2019-01-04T04:08:09.668Z,-3.20
2019-01-04T04:10:42.657Z,-3.20
2019-01-04T04:13:15.395Z,-3.20
2019-01-04T04:15:48.197Z,-3.10
2019-01-04T04:18:21.251Z,-3.10
2019-01-04T04:20:54.311Z,-3.10
2019-01-04T04:23:27.246Z,-3.10
2019-01-04T04:26:00.779Z,-3.10
2019-01-04T04:28:34.008Z,-3.10
2019-01-04T04:31:08.369Z,-3.10
2019-01-04T04:33:41.564Z,-3.10
2019-01-04T04:36:14.619Z,-3.10
2019-01-04T04:38:47.450Z,-3.10
2019-01-04T04:41:20.787Z,-3.10
2019-01-04T04:43:54.181Z,-3.20
2019-01-04T04:46:27.556Z,-3.10
2019-01-04T04:49:00.834Z,-3.10
2019-01-04T04:51:34.033Z,-3.10
2019-01-04T04:54:07.213Z,-3.10
2019-01-04T04:56:40.314Z,-3.00
2019-01-04T04:59:13.830Z,-3.10
2019-01-04T05:01:47.611Z,-3.10
2019-01-04T05:04:20.817Z,-3.10
2019-01-04T05:06:53.779Z,-3.10
2019-01-04T05:09:27.112Z,-3.00
2019-01-04T05:12:00.158Z,-3.00
2019-01-04T05:14:33.052Z,-3.10
2019-01-04T05:17:06.175Z,-3.10
2019-01-04T05:19:39.133Z,-3.10
2019-01-04T05:22:12.272Z,-3.20
2019-01-04T05:24:48.299Z,-3.20
2019-01-04T05:27:21.530Z,-3.10
2019-01-04T05:29:54.666Z,-3.10
2019-01-04T05:32:28.168Z,-3.20
2019-01-04T05:35:01.607Z,-3.10
2019-01-04T05:37:34.497Z,-3.20
2019-01-04T05:40:08.658Z,-3.20
2019-01-04T05:42:41.630Z,-3.20
2019-01-04T05:45:14.811Z,-3.20
2019-01-04T05:47:48.524Z,-3.10
2019-01-04T05:50:22.045Z,-3.20
2019-01-04T05:52:55.271Z,-3.20
2019-01-04T05:55:28.535Z,-3.20
2019-01-04T05:58:01.604Z,-3.20
2019-01-04T06:00:34.651Z,-3.20
2019-01-04T06:03:07.833Z,-3.20
2019-01-04T06:05:41.116Z,-3.20
2019-01-04T06:08:14.331Z,-3.20
2019-01-04T06:10:47.604Z,-3.10
2019-01-04T06:13:20.798Z,-3.10
2019-01-04T06:15:53.772Z,-3.10
2019-01-04T06:18:27.086Z,-3.10
2019-01-04T06:21:00.343Z,-3.10
2019-01-04T06:23:33.990Z,-3.10
2019-01-04T06:26:07.100Z,-3.10
2019-01-04T06:28:40.354Z,-3.10
2019-01-04T06:31:13.692Z,-3.10
2019-01-04T06:33:46.818Z,-3.10
2019-01-04T06:36:19.955Z,-3.10
2019-01-04T06:41:55.442Z,-3.10
2019-01-04T06:44:28.629Z,-2.90
2019-01-04T06:47:22.090Z,-2.90
2019-01-04T06:49:55.826Z,-2.90
2019-01-04T06:52:29.147Z,-2.90
2019-01-04T06:55:57.250Z,-2.80
2019-01-04T06:58:30.391Z,-2.90
2019-01-04T07:01:03.664Z,-2.90
2019-01-04T07:03:37.639Z,-2.90
2019-01-04T07:06:11.100Z,-2.90
2019-01-04T07:08:44.410Z,-2.90
2019-01-04T07:11:19.808Z,-2.90
2019-01-04T07:13:53.053Z,-2.80
2019-01-04T07:16:26.820Z,-2.90
2019-01-04T07:19:00.071Z,-2.80
2019-01-04T07:21:33.282Z,-2.70
2019-01-04T07:24:06.552Z,-2.70
2019-01-04T07:26:39.628Z,-2.70
2019-01-04T07:29:13.837Z,-2.70
2019-01-04T07:31:47.559Z,-2.60
2019-01-04T07:34:21.229Z,-2.60
2019-01-04T07:36:54.691Z,-2.50
2019-01-04T07:39:27.845Z,-2.50
2019-01-04T07:42:00.988Z,-2.50
2019-01-04T07:44:34.004Z,-2.40
2019-01-04T07:47:07.153Z,-2.30
2019-01-04T07:49:40.794Z,-2.30
2019-01-04T07:52:14.110Z,-2.20
2019-01-04T07:54:47.151Z,-2.20
2019-01-04T07:57:20.422Z,-2.20
2019-01-04T07:59:53.818Z,-2.20
2019-01-04T08:03:00.256Z,-2.20
2019-01-04T08:05:33.628Z,-2.10
2019-01-04T08:08:06.800Z,-2.10
2019-01-04T08:10:39.858Z,-2.10
2019-01-04T08:13:12.917Z,-2.10
2019-01-04T08:15:46.400Z,-2.10
2019-01-04T08:18:19.550Z,-2.00
2019-01-04T08:20:52.860Z,-1.90
2019-01-04T08:23:25.944Z,-1.70
2019-01-04T08:25:59.139Z,-1.60
2019-01-04T08:28:32.318Z,-1.50
2019-01-04T08:31:05.503Z,-1.40
2019-01-04T08:33:38.758Z,-1.40
2019-01-04T08:36:12.122Z,-1.40
2019-01-04T08:38:45.271Z,-1.40
2019-01-04T08:41:18.624Z,-1.40
2019-01-04T08:43:52.195Z,-1.40
2019-01-04T08:46:25.303Z,-1.40
2019-01-04T08:48:58.349Z,-1.30
2019-01-04T08:51:31.399Z,-1.10
2019-01-04T08:54:08.625Z,-1.00
2019-01-04T08:56:42.072Z,-0.90
2019-01-04T08:59:15.514Z,-0.80
2019-01-04T09:01:48.610Z,-0.80
2019-01-04T09:04:21.452Z,-0.80
2019-01-04T09:06:54.232Z,-0.90
2019-01-04T09:09:27.250Z,-0.80
2019-01-04T09:12:01.602Z,-0.70
2019-01-04T09:14:34.682Z,-0.50
2019-01-04T09:17:07.839Z,-0.10
2019-01-04T09:19:40.461Z,0.30
2019-01-04T09:22:15.788Z,0.50
2019-01-04T09:24:48.905Z,0.80
2019-01-04T09:27:22.236Z,1.00
2019-01-04T09:29:55.347Z,1.10
2019-01-04T09:32:28.169Z,1.10
2019-01-04T09:35:01.083Z,1.10
2019-01-04T09:37:34.074Z,0.90
2019-01-04T09:40:09.093Z,0.70
2019-01-04T09:42:43.808Z,0.40
2019-01-04T09:45:16.853Z,0.30
2019-01-04T09:47:49.895Z,0.30
2019-01-04T09:50:22.710Z,0.20
2019-01-04T09:52:55.617Z,0.10
2019-01-04T09:55:28.772Z,0.10
2019-01-04T09:58:05.198Z,0.10
2019-01-04T10:00:42.039Z,0.10
2019-01-04T10:03:18.765Z,0.10
2019-01-04T10:05:55.708Z,0.10
2019-01-04T10:08:33.394Z,0.00
2019-01-04T10:11:09.044Z,0.00
2019-01-04T10:13:43.796Z,0.00
2019-01-04T10:16:19.055Z,0.00
2019-01-04T10:18:53.983Z,-0.10
2019-01-04T10:24:28.456Z,-0.10
2019-01-04T10:27:01.794Z,-0.20
2019-01-04T10:29:34.931Z,-0.20
2019-01-04T10:32:08.053Z,-0.20
2019-01-04T10:34:41.281Z,-0.20
2019-01-04T10:37:14.458Z,-0.30
2019-01-04T10:39:47.211Z,-0.30
2019-01-04T10:42:20.374Z,-0.30
2019-01-04T10:44:53.920Z,-0.30
2019-01-04T10:47:26.868Z,-0.30
2019-01-04T10:49:59.806Z,-0.30
2019-01-04T10:52:32.845Z,-0.30
2019-01-04T10:55:07.099Z,-0.40
2019-01-04T10:57:40.232Z,-0.40
2019-01-04T11:00:14.152Z,-0.50
2019-01-04T11:02:47.260Z,-0.50
2019-01-04T11:05:20.498Z,-0.50
2019-01-04T11:07:53.775Z,-0.40
2019-01-04T11:10:26.589Z,-0.20
2019-01-04T11:12:59.692Z,0.00
2019-01-04T11:15:32.793Z,0.10
2019-01-04T11:18:09.889Z,0.10
2019-01-04T11:20:49.410Z,0.10
2019-01-04T11:24:33.015Z,0.00
2019-01-04T11:27:13.684Z,0.00
2019-01-04T11:30:30.627Z,0.00
2019-01-04T11:33:47.745Z,-0.10
2019-01-04T11:37:17.835Z,-0.20
2019-01-04T11:40:46.654Z,-0.30
2019-01-04T11:44:12.508Z,-0.30
2019-01-04T11:47:32.573Z,-0.40
2019-01-04T11:51:01.362Z,-0.50
2019-01-04T11:53:34.817Z,-0.50
2019-01-04T11:56:08.179Z,-0.50
2019-01-04T11:58:41.399Z,-0.50
2019-01-04T12:01:14.653Z,-0.60
2019-01-04T12:03:59.667Z,-0.60
2019-01-04T12:06:33.027Z,-0.70
2019-01-04T12:09:08.419Z,-0.60
2019-01-04T12:11:41.851Z,-0.50
2019-01-04T12:14:16.355Z,-0.30
2019-01-04T12:16:49.475Z,-0.20
2019-01-04T12:19:22.497Z,-0.20
2019-01-04T12:21:55.716Z,-0.10
2019-01-04T12:24:30.960Z,-0.10
2019-01-04T12:27:04.143Z,-0.10
2019-01-04T12:29:37.090Z,-0.10
2019-01-04T12:32:10.194Z,-0.20
2019-01-04T12:34:43.401Z,-0.30
2019-01-04T12:37:16.619Z,-0.40
2019-01-04T12:39:49.504Z,-0.40
2019-01-04T12:42:24.533Z,-0.50
2019-01-04T12:44:58.129Z,-0.60
2019-01-04T12:47:31.543Z,-0.70
2019-01-04T12:50:04.950Z,-0.70
2019-01-04T12:52:38.290Z,-0.80
2019-01-04T12:55:11.986Z,-0.80
2019-01-04T12:57:45.412Z,-0.80
2019-01-04T13:00:18.882Z,-0.90
2019-01-04T13:02:52.620Z,-1.00
